Ms. Emily — WDE2315 — position and weather

sailwx.info

Track history (hours):
 
Tides and Currents Weather Stations Pressure Air Temp Water Temp Dewpoint Dewpoint Depression Visibility Wind Speed Wind Dir Waves Ship Positions

Ms. Emily

Owner: Lafayette Marine, LLC, Lockport, LA. More information available from US FCC via Universal Licensing System and Coast Guard Vessel Documentation Center.

Last reported at 2017-Sep-12 12:48 UTC. Time now 2017-Nov-22 14:49 UTC.
Position N 29°06' W 089°59'.
Warning: this ship's position is months out of date.

Type: Wing in ground effect craft. MMSI: 367323350.

Date/timePositionNaut miles runAvg speedWind from/ knotsBaromVisibWave heightAir tempDewpointWater temp
2017-Sep-12 12:48N 29°06' W 089°59'  
2017-Sep-07 01:00N 29°46' W 093°21'3 6.2
2017-Sep-07 00:30N 29°49' W 093°20'0 0.0
2017-Sep-06 23:45N 29°49' W 093°20'1 2.8
2017-Sep-06 23:31N 29°49' W 093°21'3 5.5
2017-Sep-06 23:00N 29°46' W 093°21'3 0.2
2017-Sep-06 06:31N 29°42' W 093°20'414.4
2017-Sep-06 06:15N 29°46' W 093°21'210.0
2017-Sep-06 06:00N 29°49' W 093°21'0 0.2
2017-Sep-06 05:30N 29°49' W 093°21'2 4.5
2017-Sep-06 05:00N 29°46' W 093°21'0 0.0
2017-Sep-06 04:25N 29°46' W 093°21'0 0.0
2017-Sep-06 04:00N 29°46' W 093°21'0 0.0
2017-Sep-06 03:30N 29°46' W 093°21'0 0.0
2017-Sep-06 02:56N 29°46' W 093°21'2 5.7
2017-Sep-06 02:30N 29°49' W 093°21'0 0.0
2017-Sep-06 02:00N 29°49' W 093°21'0 0.0
2017-Sep-06 01:29N 29°49' W 093°21'1 2.9
2017-Sep-06 01:00N 29°47' W 093°21'  
2017-Sep-02 14:19N 29°37' W 093°33'515.7
2017-Sep-02 14:00N 29°38' W 093°27'815.4
2017-Sep-02 13:30N 29°37' W 093°19'5 9.0
2017-Sep-02 13:00N 29°37' W 093°24'  
Track history (hours):
 
Tides and Currents Weather Stations Pressure Air Temp Water Temp Dewpoint Dewpoint Depression Visibility Wind Speed Wind Dir Waves Ship Positions

Ms. Emily

Owner: Lafayette Marine, LLC, Lockport, LA. More information available from US FCC via Universal Licensing System and Coast Guard Vessel Documentation Center.

Last reported at 2017-Sep-12 12:48 UTC. Time now 2017-Nov-22 14:49 UTC.
Position N 29°06' W 089°59'.
Warning: this ship's position is months out of date.

Type: Wing in ground effect craft. MMSI: 367323350.

Date/timePositionNaut miles runAvg speedWind from/ knotsBaromVisibWave heightAir tempDewpointWater temp
2017-Sep-12 12:48N 29°06' W 089°59'  
2017-Sep-07 01:00N 29°46' W 093°21'3 6.2
2017-Sep-07 00:30N 29°49' W 093°20'0 0.0
2017-Sep-06 23:45N 29°49' W 093°20'1 2.8
2017-Sep-06 23:31N 29°49' W 093°21'3 5.5
2017-Sep-06 23:00N 29°46' W 093°21'3 0.2
2017-Sep-06 06:31N 29°42' W 093°20'414.4
2017-Sep-06 06:15N 29°46' W 093°21'210.0
2017-Sep-06 06:00N 29°49' W 093°21'0 0.2
2017-Sep-06 05:30N 29°49' W 093°21'2 4.5
2017-Sep-06 05:00N 29°46' W 093°21'0 0.0
2017-Sep-06 04:25N 29°46' W 093°21'0 0.0
2017-Sep-06 04:00N 29°46' W 093°21'0 0.0
2017-Sep-06 03:30N 29°46' W 093°21'0 0.0
2017-Sep-06 02:56N 29°46' W 093°21'2 5.7
2017-Sep-06 02:30N 29°49' W 093°21'0 0.0
2017-Sep-06 02:00N 29°49' W 093°21'0 0.0
2017-Sep-06 01:29N 29°49' W 093°21'1 2.9
2017-Sep-06 01:00N 29°47' W 093°21'  
2017-Sep-02 14:19N 29°37' W 093°33'515.7
2017-Sep-02 14:00N 29°38' W 093°27'815.4
2017-Sep-02 13:30N 29°37' W 093°19'5 9.0
2017-Sep-02 13:00N 29°37' W 093°24'  

Dump ship's entire track history